Terminal Aerodrome Forecast
Issued by NWS Wilmington, OH

Current Version | Previous Version | Graphics & Text | Print | Product List | Glossary On
Versions: 1 2 3 4 5 6 7 8 9 10 11 12 13 14 15 16 17 18 19
000
FTUS41 KILN 241700
TAFCVG
TAF
KCVG 241720Z 2418/2524 20011KT 3SM -RA BR OVC006
     FM242000 23014G22KT 4SM -RA BR BKN007
     FM242100 26017G32KT P6SM -RA BKN009
     FM250200 24015G28KT P6SM VCSH OVC018
     FM250800 25012G20KT P6SM VCSH OVC022
     FM251300 23010KT P6SM BKN025=

USA.gov is the U.S. government's official web portal to all federal, state and local government web resources and services.